sensor_id;sensor_type;location;lat;lon;timestamp;pressure;altitude;pressure_sealevel;temperature;humidity
54872;BME280;43914;57.680;11.982;2023-02-10T00:01:48;101017.15;;;2.79;72.65
54872;BME280;43914;57.680;11.982;2023-02-10T00:04:14;101015.27;;;2.76;73.04
54872;BME280;43914;57.680;11.982;2023-02-10T00:06:40;101025.80;;;2.73;72.84
54872;BME280;43914;57.680;11.982;2023-02-10T00:09:06;101022.63;;;2.70;72.50
54872;BME280;43914;57.680;11.982;2023-02-10T00:11:32;101029.28;;;2.69;72.20
54872;BME280;43914;57.680;11.982;2023-02-10T00:14:17;101027.09;;;2.66;72.29
54872;BME280;43914;57.680;11.982;2023-02-10T00:16:43;101029.69;;;2.62;72.80
54872;BME280;43914;57.680;11.982;2023-02-10T00:19:08;101035.05;;;2.59;72.24
54872;BME280;43914;57.680;11.982;2023-02-10T00:21:34;101037.27;;;2.58;72.37
54872;BME280;43914;57.680;11.982;2023-02-10T00:24:00;101034.95;;;2.56;73.50
54872;BME280;43914;57.680;11.982;2023-02-10T00:26:25;101035.25;;;2.54;74.12
54872;BME280;43914;57.680;11.982;2023-02-10T00:28:51;101045.17;;;2.52;75.17
54872;BME280;43914;57.680;11.982;2023-02-10T00:31:17;101044.00;;;2.51;75.85
54872;BME280;43914;57.680;11.982;2023-02-10T00:33:44;101055.79;;;2.50;76.23
54872;BME280;43914;57.680;11.982;2023-02-10T00:36:12;101051.78;;;2.49;76.77
54872;BME280;43914;57.680;11.982;2023-02-10T00:38:39;101057.15;;;2.48;77.46
54872;BME280;43914;57.680;11.982;2023-02-10T00:41:07;101058.30;;;2.47;77.71
54872;BME280;43914;57.680;11.982;2023-02-10T00:43:34;101073.52;;;2.47;77.30
54872;BME280;43914;57.680;11.982;2023-02-10T00:46:00;101069.15;;;2.46;77.31
54872;BME280;43914;57.680;11.982;2023-02-10T00:48:26;101075.95;;;2.45;77.70
54872;BME280;43914;57.680;11.982;2023-02-10T00:50:51;101092.19;;;2.46;78.39
54872;BME280;43914;57.680;11.982;2023-02-10T00:53:17;101092.82;;;2.44;78.92
54872;BME280;43914;57.680;11.982;2023-02-10T00:55:42;101098.86;;;2.44;79.53
54872;BME280;43914;57.680;11.982;2023-02-10T00:58:08;101106.89;;;2.43;80.25
54872;BME280;43914;57.680;11.982;2023-02-10T01:00:33;101111.48;;;2.43;81.10
54872;BME280;43914;57.680;11.982;2023-02-10T01:02:58;101101.55;;;2.43;81.46
54872;BME280;43914;57.680;11.982;2023-02-10T01:05:24;101103.00;;;2.43;81.84
54872;BME280;43914;57.680;11.982;2023-02-10T01:07:49;101106.50;;;2.41;81.80
54872;BME280;43914;57.680;11.982;2023-02-10T01:10:17;101100.11;;;2.40;81.93
54872;BME280;43914;57.680;11.982;2023-02-10T01:12:42;101100.71;;;2.39;81.98
54872;BME280;43914;57.680;11.982;2023-02-10T01:15:08;101100.71;;;2.36;82.18
54872;BME280;43914;57.680;11.982;2023-02-10T01:17:33;101113.27;;;2.37;81.96
54872;BME280;43914;57.680;11.982;2023-02-10T01:19:59;101106.92;;;2.36;81.68
54872;BME280;43914;57.680;11.982;2023-02-10T01:22:24;101111.50;;;2.34;81.42
54872;BME280;43914;57.680;11.982;2023-02-10T01:24:50;101104.83;;;2.33;81.63
54872;BME280;43914;57.680;11.982;2023-02-10T01:27:15;101113.83;;;2.31;81.25
54872;BME280;43914;57.680;11.982;2023-02-10T01:29:41;101119.67;;;2.29;80.79
54872;BME280;43914;57.680;11.982;2023-02-10T01:32:06;101130.71;;;2.28;79.96
54872;BME280;43914;57.680;11.982;2023-02-10T01:34:32;101138.83;;;2.26;79.47
54872;BME280;43914;57.680;11.982;2023-02-10T01:36:57;101143.66;;;2.25;78.74
54872;BME280;43914;57.680;11.982;2023-02-10T01:39:22;101139.54;;;2.24;78.60
54872;BME280;43914;57.680;11.982;2023-02-10T01:41:48;101145.35;;;2.22;78.90
54872;BME280;43914;57.680;11.982;2023-02-10T01:46:47;101148.46;;;2.20;77.69
54872;BME280;43914;57.680;11.982;2023-02-10T01:49:19;101147.86;;;2.19;77.93
54872;BME280;43914;57.680;11.982;2023-02-10T01:51:58;101161.49;;;2.16;77.85
54872;BME280;43914;57.680;11.982;2023-02-10T01:54:49;101169.00;;;2.15;77.47
54872;BME280;43914;57.680;11.982;2023-02-10T01:57:12;101173.16;;;2.16;77.10
54872;BME280;43914;57.680;11.982;2023-02-10T01:59:39;101173.07;;;2.18;77.37
54872;BME280;43914;57.680;11.982;2023-02-10T02:02:08;101179.06;;;2.18;77.14
54872;BME280;43914;57.680;11.982;2023-02-10T02:04:37;101188.58;;;2.16;76.95
54872;BME280;43914;57.680;11.982;2023-02-10T02:07:06;101186.29;;;2.15;77.14
54872;BME280;43914;57.680;11.982;2023-02-10T02:09:32;101193.11;;;2.14;77.09
54872;BME280;43914;57.680;11.982;2023-02-10T02:14:47;101183.19;;;2.15;77.17
54872;BME280;43914;57.680;11.982;2023-02-10T02:26:26;101185.35;;;2.14;76.45
54872;BME280;43914;57.680;11.982;2023-02-10T02:29:34;101185.32;;;2.12;76.61
54872;BME280;43914;57.680;11.982;2023-02-10T02:32:21;101197.91;;;2.12;76.15
54872;BME280;43914;57.680;11.982;2023-02-10T02:35:10;101187.77;;;2.10;75.48
54872;BME280;43914;57.680;11.982;2023-02-10T02:37:41;101198.77;;;2.09;75.32
54872;BME280;43914;57.680;11.982;2023-02-10T02:40:09;101198.23;;;2.10;75.55
54872;BME280;43914;57.680;11.982;2023-02-10T02:42:36;101199.67;;;2.10;75.69
54872;BME280;43914;57.680;11.982;2023-02-10T02:48:02;101211.52;;;2.05;75.60
54872;BME280;43914;57.680;11.982;2023-02-10T02:50:37;101214.82;;;2.03;75.83
54872;BME280;43914;57.680;11.982;2023-02-10T02:56:16;101219.73;;;1.99;75.39
54872;BME280;43914;57.680;11.982;2023-02-10T02:59:13;101214.69;;;1.97;74.82
54872;BME280;43914;57.680;11.982;2023-02-10T03:01:51;101210.28;;;1.97;75.11
54872;BME280;43914;57.680;11.982;2023-02-10T03:04:20;101212.96;;;1.97;75.42
54872;BME280;43914;57.680;11.982;2023-02-10T03:06:45;101221.69;;;1.96;75.75
54872;BME280;43914;57.680;11.982;2023-02-10T03:09:14;101215.66;;;1.96;76.20
54872;BME280;43914;57.680;11.982;2023-02-10T03:11:39;101220.03;;;1.95;76.59
54872;BME280;43914;57.680;11.982;2023-02-10T03:14:05;101229.05;;;1.95;76.36
54872;BME280;43914;57.680;11.982;2023-02-10T03:16:31;101241.70;;;1.95;76.13
54872;BME280;43914;57.680;11.982;2023-02-10T03:18:57;101227.21;;;1.95;76.12
54872;BME280;43914;57.680;11.982;2023-02-10T03:21:22;101223.44;;;1.96;75.49
54872;BME280;43914;57.680;11.982;2023-02-10T03:23:48;101222.14;;;1.97;75.55
54872;BME280;43914;57.680;11.982;2023-02-10T03:26:13;101221.46;;;1.97;75.29
54872;BME280;43914;57.680;11.982;2023-02-10T03:28:39;101230.14;;;1.96;75.33
54872;BME280;43914;57.680;11.982;2023-02-10T03:31:05;101225.95;;;1.96;74.51
54872;BME280;43914;57.680;11.982;2023-02-10T03:33:31;101218.38;;;1.95;74.52
54872;BME280;43914;57.680;11.982;2023-02-10T03:35:57;101230.59;;;1.95;73.85
54872;BME280;43914;57.680;11.982;2023-02-10T03:38:24;101221.08;;;1.97;73.65
54872;BME280;43914;57.680;11.982;2023-02-10T03:40:50;101224.43;;;1.97;73.72
54872;BME280;43914;57.680;11.982;2023-02-10T03:43:16;101237.46;;;1.95;73.61
54872;BME280;43914;57.680;11.982;2023-02-10T03:45:42;101239.13;;;1.97;73.47
54872;BME280;43914;57.680;11.982;2023-02-10T03:48:08;101240.48;;;1.95;73.53
54872;BME280;43914;57.680;11.982;2023-02-10T03:50:34;101239.23;;;1.96;73.72
54872;BME280;43914;57.680;11.982;2023-02-10T03:52:59;101232.67;;;1.96;73.55
54872;BME280;43914;57.680;11.982;2023-02-10T03:55:25;101235.00;;;1.95;73.72
54872;BME280;43914;57.680;11.982;2023-02-10T03:57:50;101225.08;;;1.94;73.98
54872;BME280;43914;57.680;11.982;2023-02-10T04:00:16;101223.17;;;1.93;74.62
54872;BME280;43914;57.680;11.982;2023-02-10T04:02:42;101237.20;;;1.94;75.04
54872;BME280;43914;57.680;11.982;2023-02-10T04:05:08;101229.75;;;1.92;75.43
54872;BME280;43914;57.680;11.982;2023-02-10T04:07:33;101238.87;;;1.91;75.47
54872;BME280;43914;57.680;11.982;2023-02-10T04:09:59;101237.91;;;1.90;75.47
54872;BME280;43914;57.680;11.982;2023-02-10T04:12:24;101250.70;;;1.89;75.47
54872;BME280;43914;57.680;11.982;2023-02-10T04:14:50;101258.05;;;1.87;75.48
54872;BME280;43914;57.680;11.982;2023-02-10T04:17:15;101265.05;;;1.85;74.91
54872;BME280;43914;57.680;11.982;2023-02-10T04:19:41;101279.41;;;1.85;74.64
54872;BME280;43914;57.680;11.982;2023-02-10T04:22:06;101281.18;;;1.85;74.68
54872;BME280;43914;57.680;11.982;2023-02-10T04:24:32;101279.86;;;1.86;74.46
54872;BME280;43914;57.680;11.982;2023-02-10T04:26:57;101288.85;;;1.86;74.33
54872;BME280;43914;57.680;11.982;2023-02-10T04:29:23;101285.86;;;1.86;74.67
54872;BME280;43914;57.680;11.982;2023-02-10T04:31:48;101281.66;;;1.85;74.90
54872;BME280;43914;57.680;11.982;2023-02-10T04:34:14;101289.16;;;1.85;75.05
54872;BME280;43914;57.680;11.982;2023-02-10T04:36:39;101289.90;;;1.82;74.64
54872;BME280;43914;57.680;11.982;2023-02-10T04:39:05;101297.19;;;1.81;74.84
54872;BME280;43914;57.680;11.982;2023-02-10T04:41:31;101308.59;;;1.80;74.58
54872;BME280;43914;57.680;11.982;2023-02-10T04:43:57;101310.94;;;1.79;73.90
54872;BME280;43914;57.680;11.982;2023-02-10T04:46:23;101310.58;;;1.79;72.13
54872;BME280;43914;57.680;11.982;2023-02-10T04:48:48;101322.38;;;1.80;72.48
54872;BME280;43914;57.680;11.982;2023-02-10T04:51:13;101318.96;;;1.78;71.70
54872;BME280;43914;57.680;11.982;2023-02-10T04:53:40;101317.91;;;1.78;69.92
54872;BME280;43914;57.680;11.982;2023-02-10T04:56:08;101322.77;;;1.79;69.62
54872;BME280;43914;57.680;11.982;2023-02-10T04:58:34;101323.74;;;1.81;68.71
54872;BME280;43914;57.680;11.982;2023-02-10T05:00:59;101329.86;;;1.79;68.79
54872;BME280;43914;57.680;11.982;2023-02-10T05:03:25;101320.69;;;1.72;67.99
54872;BME280;43914;57.680;11.982;2023-02-10T05:05:51;101333.27;;;1.76;67.42
54872;BME280;43914;57.680;11.982;2023-02-10T05:08:20;101332.58;;;1.76;66.85
54872;BME280;43914;57.680;11.982;2023-02-10T05:10:49;101331.43;;;1.75;66.56
54872;BME280;43914;57.680;11.982;2023-02-10T05:13:15;101327.28;;;1.73;65.72
54872;BME280;43914;57.680;11.982;2023-02-10T05:15:40;101315.19;;;1.74;66.16
54872;BME280;43914;57.680;11.982;2023-02-10T05:18:06;101321.50;;;1.75;65.94
54872;BME280;43914;57.680;11.982;2023-02-10T05:20:31;101320.76;;;1.76;65.84
54872;BME280;43914;57.680;11.982;2023-02-10T05:22:57;101333.06;;;1.74;65.45
54872;BME280;43914;57.680;11.982;2023-02-10T05:25:22;101339.91;;;1.75;65.99
54872;BME280;43914;57.680;11.982;2023-02-10T05:27:48;101344.70;;;1.74;65.75
54872;BME280;43914;57.680;11.982;2023-02-10T05:30:13;101349.81;;;1.74;65.25
54872;BME280;43914;57.680;11.982;2023-02-10T05:32:40;101355.03;;;1.73;65.60
54872;BME280;43914;57.680;11.982;2023-02-10T05:35:06;101362.89;;;1.71;66.10
54872;BME280;43914;57.680;11.982;2023-02-10T05:37:32;101369.55;;;1.70;66.34
54872;BME280;43914;57.680;11.982;2023-02-10T05:39:57;101373.07;;;1.67;66.20
54872;BME280;43914;57.680;11.982;2023-02-10T05:42:22;101369.08;;;1.67;66.57
54872;BME280;43914;57.680;11.982;2023-02-10T05:44:48;101371.05;;;1.64;66.77
54872;BME280;43914;57.680;11.982;2023-02-10T05:47:13;101373.09;;;1.62;66.66
54872;BME280;43914;57.680;11.982;2023-02-10T05:49:39;101376.78;;;1.63;66.40
54872;BME280;43914;57.680;11.982;2023-02-10T05:52:04;101380.73;;;1.62;66.40
54872;BME280;43914;57.680;11.982;2023-02-10T05:54:30;101379.56;;;1.61;66.49
54872;BME280;43914;57.680;11.982;2023-02-10T05:56:55;101377.52;;;1.62;66.82
54872;BME280;43914;57.680;11.982;2023-02-10T05:59:22;101383.91;;;1.62;67.17
54872;BME280;43914;57.680;11.982;2023-02-10T06:01:47;101383.18;;;1.62;67.31
54872;BME280;43914;57.680;11.982;2023-02-10T06:04:13;101381.23;;;1.62;67.12
54872;BME280;43914;57.680;11.982;2023-02-10T06:06:39;101387.23;;;1.63;67.14
54872;BME280;43914;57.680;11.982;2023-02-10T06:09:04;101392.91;;;1.65;67.54
54872;BME280;43914;57.680;11.982;2023-02-10T06:11:30;101405.45;;;1.64;67.13
54872;BME280;43914;57.680;11.982;2023-02-10T06:13:56;101409.50;;;1.65;67.25
54872;BME280;43914;57.680;11.982;2023-02-10T06:16:21;101406.48;;;1.65;67.14
54872;BME280;43914;57.680;11.982;2023-02-10T06:18:47;101409.55;;;1.64;67.16
54872;BME280;43914;57.680;11.982;2023-02-10T06:21:14;101390.61;;;1.64;66.51
54872;BME280;43914;57.680;11.982;2023-02-10T06:23:40;101397.38;;;1.64;66.18
54872;BME280;43914;57.680;11.982;2023-02-10T06:26:06;101393.76;;;1.65;65.53
54872;BME280;43914;57.680;11.982;2023-02-10T06:28:31;101404.11;;;1.66;65.85
54872;BME280;43914;57.680;11.982;2023-02-10T06:30:57;101411.36;;;1.66;66.05
54872;BME280;43914;57.680;11.982;2023-02-10T06:33:23;101415.65;;;1.65;66.11
54872;BME280;43914;57.680;11.982;2023-02-10T06:35:48;101416.08;;;1.64;66.49
54872;BME280;43914;57.680;11.982;2023-02-10T06:38:15;101424.73;;;1.62;66.85
54872;BME280;43914;57.680;11.982;2023-02-10T06:40:41;101433.98;;;1.61;67.22
54872;BME280;43914;57.680;11.982;2023-02-10T06:43:06;101438.50;;;1.57;67.43
54872;BME280;43914;57.680;11.982;2023-02-10T06:45:31;101434.39;;;1.55;67.54
54872;BME280;43914;57.680;11.982;2023-02-10T06:47:58;101437.92;;;1.55;67.76
54872;BME280;43914;57.680;11.982;2023-02-10T06:50:24;101441.16;;;1.54;68.06
54872;BME280;43914;57.680;11.982;2023-02-10T06:52:50;101446.73;;;1.53;68.31
54872;BME280;43914;57.680;11.982;2023-02-10T06:55:16;101447.14;;;1.52;68.65
54872;BME280;43914;57.680;11.982;2023-02-10T06:57:42;101453.52;;;1.51;68.93
54872;BME280;43914;57.680;11.982;2023-02-10T07:00:11;101459.58;;;1.50;69.29
54872;BME280;43914;57.680;11.982;2023-02-10T07:02:37;101466.95;;;1.49;69.53
54872;BME280;43914;57.680;11.982;2023-02-10T07:05:04;101471.56;;;1.48;69.66
54872;BME280;43914;57.680;11.982;2023-02-10T07:07:33;101473.66;;;1.49;69.90
54872;BME280;43914;57.680;11.982;2023-02-10T07:09:58;101477.14;;;1.50;70.13
54872;BME280;43914;57.680;11.982;2023-02-10T07:12:24;101474.98;;;1.50;70.24
54872;BME280;43914;57.680;11.982;2023-02-10T07:14:52;101468.73;;;1.51;70.46
54872;BME280;43914;57.680;11.982;2023-02-10T07:17:18;101463.55;;;1.54;70.29
54872;BME280;43914;57.680;11.982;2023-02-10T07:19:44;101466.27;;;1.59;69.80
54872;BME280;43914;57.680;11.982;2023-02-10T07:22:09;101464.91;;;1.68;71.70
54872;BME280;43914;57.680;11.982;2023-02-10T07:24:35;101473.38;;;1.70;70.09
54872;BME280;43914;57.680;11.982;2023-02-10T07:27:01;101480.69;;;1.72;69.87
54872;BME280;43914;57.680;11.982;2023-02-10T07:29:27;101481.70;;;1.73;69.65
54872;BME280;43914;57.680;11.982;2023-02-10T07:31:53;101484.96;;;1.74;69.75
54872;BME280;43914;57.680;11.982;2023-02-10T07:34:19;101488.39;;;1.76;69.74
54872;BME280;43914;57.680;11.982;2023-02-10T07:36:46;101488.11;;;1.77;69.34
54872;BME280;43914;57.680;11.982;2023-02-10T07:39:15;101491.91;;;1.79;69.02
54872;BME280;43914;57.680;11.982;2023-02-10T07:41:41;101493.79;;;1.80;69.48
54872;BME280;43914;57.680;11.982;2023-02-10T07:44:06;101500.02;;;1.81;69.55
54872;BME280;43914;57.680;11.982;2023-02-10T07:46:32;101500.91;;;1.81;69.38
54872;BME280;43914;57.680;11.982;2023-02-10T07:48:57;101499.04;;;1.83;69.19
54872;BME280;43914;57.680;11.982;2023-02-10T07:51:22;101500.91;;;1.84;69.04
54872;BME280;43914;57.680;11.982;2023-02-10T07:53:48;101499.86;;;1.86;69.02
54872;BME280;43914;57.680;11.982;2023-02-10T07:56:13;101497.73;;;1.89;69.17
54872;BME280;43914;57.680;11.982;2023-02-10T07:58:39;101502.29;;;1.92;68.58
54872;BME280;43914;57.680;11.982;2023-02-10T08:01:09;101505.11;;;1.94;68.32
54872;BME280;43914;57.680;11.982;2023-02-10T08:03:34;101501.02;;;1.97;68.38
54872;BME280;43914;57.680;11.982;2023-02-10T08:06:00;101497.16;;;2.00;68.33
54872;BME280;43914;57.680;11.982;2023-02-10T08:08:25;101501.98;;;2.04;68.25
54872;BME280;43914;57.680;11.982;2023-02-10T08:10:51;101498.16;;;2.08;68.07
54872;BME280;43914;57.680;11.982;2023-02-10T08:13:16;101501.07;;;2.12;67.77
54872;BME280;43914;57.680;11.982;2023-02-10T08:15:43;101497.95;;;2.14;67.66
54872;BME280;43914;57.680;11.982;2023-02-10T08:18:08;101498.31;;;2.18;67.95
54872;BME280;43914;57.680;11.982;2023-02-10T08:20:34;101492.21;;;2.20;67.35
54872;BME280;43914;57.680;11.982;2023-02-10T08:22:59;101500.30;;;2.23;67.60
54872;BME280;43914;57.680;11.982;2023-02-10T08:25:25;101510.15;;;2.26;67.73
54872;BME280;43914;57.680;11.982;2023-02-10T08:27:50;101517.23;;;2.28;67.81
54872;BME280;43914;57.680;11.982;2023-02-10T08:30:17;101526.55;;;2.31;67.90
54872;BME280;43914;57.680;11.982;2023-02-10T08:32:43;101533.42;;;2.34;67.76
54872;BME280;43914;57.680;11.982;2023-02-10T08:35:08;101544.77;;;2.37;67.04
54872;BME280;43914;57.680;11.982;2023-02-10T08:37:34;101554.13;;;2.39;67.02
54872;BME280;43914;57.680;11.982;2023-02-10T08:40:00;101560.52;;;2.41;66.98
54872;BME280;43914;57.680;11.982;2023-02-10T08:42:27;101563.44;;;2.44;66.28
54872;BME280;43914;57.680;11.982;2023-02-10T08:44:53;101571.95;;;2.47;65.58
54872;BME280;43914;57.680;11.982;2023-02-10T08:47:18;101565.65;;;2.51;65.34
54872;BME280;43914;57.680;11.982;2023-02-10T08:49:44;101567.56;;;2.54;64.91
54872;BME280;43914;57.680;11.982;2023-02-10T08:52:10;101566.71;;;2.58;64.55
54872;BME280;43914;57.680;11.982;2023-02-10T08:54:35;101560.17;;;2.61;64.19
54872;BME280;43914;57.680;11.982;2023-02-10T08:57:01;101552.04;;;2.63;63.82
54872;BME280;43914;57.680;11.982;2023-02-10T08:59:26;101552.38;;;2.66;64.26
54872;BME280;43914;57.680;11.982;2023-02-10T09:01:52;101546.88;;;2.69;64.16
54872;BME280;43914;57.680;11.982;2023-02-10T09:04:18;101541.58;;;2.66;64.14
54872;BME280;43914;57.680;11.982;2023-02-10T09:06:44;101543.14;;;2.74;64.58
54872;BME280;43914;57.680;11.982;2023-02-10T09:09:11;101541.14;;;2.77;63.81
54872;BME280;43914;57.680;11.982;2023-02-10T09:11:38;101536.55;;;2.77;63.69
54872;BME280;43914;57.680;11.982;2023-02-10T09:14:04;101543.04;;;2.80;63.58
54872;BME280;43914;57.680;11.982;2023-02-10T09:16:29;101538.73;;;2.83;62.44
54872;BME280;43914;57.680;11.982;2023-02-10T09:18:55;101533.76;;;2.86;62.55
54872;BME280;43914;57.680;11.982;2023-02-10T09:21:21;101533.00;;;2.91;62.83
54872;BME280;43914;57.680;11.982;2023-02-10T09:23:46;101525.51;;;2.95;62.30
54872;BME280;43914;57.680;11.982;2023-02-10T09:26:12;101531.39;;;2.99;62.33
54872;BME280;43914;57.680;11.982;2023-02-10T09:28:38;101533.06;;;3.02;61.89
54872;BME280;43914;57.680;11.982;2023-02-10T09:31:06;101536.89;;;3.06;61.86
54872;BME280;43914;57.680;11.982;2023-02-10T09:33:32;101537.90;;;3.09;61.61
54872;BME280;43914;57.680;11.982;2023-02-10T09:35:58;101540.85;;;3.12;61.56
54872;BME280;43914;57.680;11.982;2023-02-10T09:38:25;101542.25;;;3.15;61.59
54872;BME280;43914;57.680;11.982;2023-02-10T09:41:01;101545.98;;;3.19;61.91
54872;BME280;43914;57.680;11.982;2023-02-10T09:46:16;101545.61;;;3.27;60.90
54872;BME280;43914;57.680;11.982;2023-02-10T09:51:43;101542.66;;;3.31;60.02
54872;BME280;43914;57.680;11.982;2023-02-10T09:54:09;101542.27;;;3.36;60.52
54872;BME280;43914;57.680;11.982;2023-02-10T09:56:36;101547.48;;;3.39;60.77
54872;BME280;43914;57.680;11.982;2023-02-10T09:59:05;101547.49;;;3.44;61.25
54872;BME280;43914;57.680;11.982;2023-02-10T10:01:48;101559.63;;;3.50;61.22
54872;BME280;43914;57.680;11.982;2023-02-10T10:04:16;101552.56;;;3.52;60.73
54872;BME280;43914;57.680;11.982;2023-02-10T10:06:48;101556.46;;;3.56;60.61
54872;BME280;43914;57.680;11.982;2023-02-10T10:09:35;101555.69;;;3.57;60.50
54872;BME280;43914;57.680;11.982;2023-02-10T10:12:02;101556.01;;;3.60;60.94
54872;BME280;43914;57.680;11.982;2023-02-10T10:14:39;101561.54;;;3.64;61.21
54872;BME280;43914;57.680;11.982;2023-02-10T10:23:28;101553.08;;;3.66;62.02
54872;BME280;43914;57.680;11.982;2023-02-10T10:28:45;101557.59;;;3.67;62.18
54872;BME280;43914;57.680;11.982;2023-02-10T10:31:15;101557.58;;;3.70;62.12
54872;BME280;43914;57.680;11.982;2023-02-10T10:36:37;101560.33;;;3.78;61.96
54872;BME280;43914;57.680;11.982;2023-02-10T10:39:14;101568.52;;;3.82;62.27
54872;BME280;43914;57.680;11.982;2023-02-10T10:41:43;101571.73;;;3.89;62.55
54872;BME280;43914;57.680;11.982;2023-02-10T10:44:15;101565.98;;;3.92;62.66
54872;BME280;43914;57.680;11.982;2023-02-10T10:47:05;101575.23;;;3.94;63.00
54872;BME280;43914;57.680;11.982;2023-02-10T10:49:35;101568.45;;;3.89;63.53
54872;BME280;43914;57.680;11.982;2023-02-10T10:52:02;101560.75;;;3.93;64.01
54872;BME280;43914;57.680;11.982;2023-02-10T10:54:29;101556.80;;;3.94;64.19
54872;BME280;43914;57.680;11.982;2023-02-10T10:57:04;101558.25;;;3.98;64.22
54872;BME280;43914;57.680;11.982;2023-02-10T10:59:38;101552.67;;;3.97;63.78
54872;BME280;43914;57.680;11.982;2023-02-10T11:02:34;101556.02;;;3.95;63.91
54872;BME280;43914;57.680;11.982;2023-02-10T11:05:04;101552.31;;;3.92;63.90
54872;BME280;43914;57.680;11.982;2023-02-10T11:07:32;101561.23;;;3.92;63.64
54872;BME280;43914;57.680;11.982;2023-02-10T11:09:59;101565.95;;;3.90;63.77
54872;BME280;43914;57.680;11.982;2023-02-10T11:12:45;101558.98;;;3.88;63.49
54872;BME280;43914;57.680;11.982;2023-02-10T11:15:31;101546.80;;;3.90;64.06
54872;BME280;43914;57.680;11.982;2023-02-10T11:18:00;101538.80;;;3.93;64.26
54872;BME280;43914;57.680;11.982;2023-02-10T11:20:32;101532.06;;;3.97;64.58
54872;BME280;43914;57.680;11.982;2023-02-10T11:23:10;101530.06;;;4.00;64.46
54872;BME280;43914;57.680;11.982;2023-02-10T11:25:36;101519.90;;;4.01;64.51
54872;BME280;43914;57.680;11.982;2023-02-10T11:28:06;101521.04;;;4.02;64.57
54872;BME280;43914;57.680;11.982;2023-02-10T11:30:35;101515.48;;;4.03;64.95
54872;BME280;43914;57.680;11.982;2023-02-10T11:33:02;101513.42;;;4.07;65.24
54872;BME280;43914;57.680;11.982;2023-02-10T11:35:31;101510.23;;;4.09;65.34
54872;BME280;43914;57.680;11.982;2023-02-10T11:38:02;101512.94;;;4.10;65.62
54872;BME280;43914;57.680;11.982;2023-02-10T11:40:46;101504.91;;;4.13;65.86
54872;BME280;43914;57.680;11.982;2023-02-10T11:43:14;101505.15;;;4.17;65.50
54872;BME280;43914;57.680;11.982;2023-02-10T11:45:51;101504.69;;;4.18;65.56
54872;BME280;43914;57.680;11.982;2023-02-10T11:48:21;101505.66;;;4.19;66.13
54872;BME280;43914;57.680;11.982;2023-02-10T11:50:47;101503.23;;;4.18;67.27
54872;BME280;43914;57.680;11.982;2023-02-10T11:53:27;101503.58;;;4.21;68.24
54872;BME280;43914;57.680;11.982;2023-02-10T12:02:39;101497.10;;;4.24;70.24
54872;BME280;43914;57.680;11.982;2023-02-10T12:08:32;101511.02;;;4.30;70.62
54872;BME280;43914;57.680;11.982;2023-02-10T12:11:10;101503.06;;;4.30;71.00
54872;BME280;43914;57.680;11.982;2023-02-10T12:13:52;101503.10;;;4.31;71.04
54872;BME280;43914;57.680;11.982;2023-02-10T12:19:12;101497.17;;;4.32;71.00
54872;BME280;43914;57.680;11.982;2023-02-10T12:22:02;101491.48;;;4.32;71.20
54872;BME280;43914;57.680;11.982;2023-02-10T12:25:09;101486.27;;;4.31;71.28
54872;BME280;43914;57.680;11.982;2023-02-10T12:28:01;101488.65;;;4.32;71.56
54872;BME280;43914;57.680;11.982;2023-02-10T12:42:02;101474.34;;;4.36;70.77
54872;BME280;43914;57.680;11.982;2023-02-10T12:57:24;101452.96;;;4.31;71.44
54872;BME280;43914;57.680;11.982;2023-02-10T13:00:13;101449.67;;;4.27;70.18
54872;BME280;43914;57.680;11.982;2023-02-10T13:03:25;101443.88;;;4.27;70.24
54872;BME280;43914;57.680;11.982;2023-02-10T13:05:54;101433.00;;;4.25;70.61
54872;BME280;43914;57.680;11.982;2023-02-10T13:08:36;101421.37;;;4.18;71.17
54872;BME280;43914;57.680;11.982;2023-02-10T13:11:11;101416.11;;;4.06;71.90
54872;BME280;43914;57.680;11.982;2023-02-10T13:13:39;101410.16;;;4.05;72.81
54872;BME280;43914;57.680;11.982;2023-02-10T13:16:10;101406.98;;;4.00;73.55
54872;BME280;43914;57.680;11.982;2023-02-10T13:18:50;101400.11;;;3.93;74.39
54872;BME280;43914;57.680;11.982;2023-02-10T13:21:43;101389.89;;;3.86;75.28
54872;BME280;43914;57.680;11.982;2023-02-10T13:24:19;101381.02;;;3.82;76.52
54872;BME280;43914;57.680;11.982;2023-02-10T13:26:54;101387.10;;;3.79;77.46
54872;BME280;43914;57.680;11.982;2023-02-10T13:29:42;101377.95;;;3.73;78.76
54872;BME280;43914;57.680;11.982;2023-02-10T13:34:53;101375.92;;;3.65;81.39
54872;BME280;43914;57.680;11.982;2023-02-10T13:37:30;101372.37;;;3.61;82.36
54872;BME280;43914;57.680;11.982;2023-02-10T13:40:02;101374.96;;;3.68;83.16
54872;BME280;43914;57.680;11.982;2023-02-10T13:42:37;101360.05;;;3.67;83.69
54872;BME280;43914;57.680;11.982;2023-02-10T13:45:16;101352.45;;;3.59;84.39
54872;BME280;43914;57.680;11.982;2023-02-10T13:47:49;101363.88;;;3.52;85.92
54872;BME280;43914;57.680;11.982;2023-02-10T13:50:42;101349.20;;;3.38;88.18
54872;BME280;43914;57.680;11.982;2023-02-10T14:01:45;101309.33;;;3.16;93.17
54872;BME280;43914;57.680;11.982;2023-02-10T14:06:51;101281.99;;;2.98;96.44
54872;BME280;43914;57.680;11.982;2023-02-10T14:11:54;101270.77;;;2.77;98.46
54872;BME280;43914;57.680;11.982;2023-02-10T14:14:29;101265.44;;;2.70;99.37
54872;BME280;43914;57.680;11.982;2023-02-10T14:17:06;101262.21;;;2.61;100.00
54872;BME280;43914;57.680;11.982;2023-02-10T14:21:59;101248.68;;;2.51;100.00
54872;BME280;43914;57.680;11.982;2023-02-10T14:24:34;101246.86;;;2.47;100.00
54872;BME280;43914;57.680;11.982;2023-02-10T14:27:02;101245.61;;;2.42;100.00
54872;BME280;43914;57.680;11.982;2023-02-10T14:29:29;101239.45;;;2.40;100.00
54872;BME280;43914;57.680;11.982;2023-02-10T14:31:57;101238.36;;;2.36;100.00
54872;BME280;43914;57.680;11.982;2023-02-10T14:34:27;101229.05;;;2.29;100.00